Time;durP1;ratioP1;P1;durP2;ratioP2;P2;SDS_P1;SDS_P2;PMS_P1;PMS_P2;Temp;Humidity;BMP_temperature;BMP_pressure;BME280_temperature;BME280_humidity;BME280_pressure;Samples;Min_cycle;Max_cycle;Signal;HPM_P1;HPM_P2
2022/08/30 00:03:16;;;;;;;4.60;2.13;;;;;;;;;;4995508;28;20149;-76
2022/08/30 00:05:42;;;;;;;5.18;2.20;;;;;;;;;;4995428;28;20041;-76
2022/08/30 00:08:09;;;;;;;5.97;2.70;;;;;;;;;;4995369;28;20042;-76
2022/08/30 00:10:35;;;;;;;4.90;2.45;;;;;;;;;;4998155;28;20065;-76
2022/08/30 00:13:01;;;;;;;4.72;2.25;;;;;;;;;;5001359;28;20029;-76
2022/08/30 00:15:28;;;;;;;5.47;2.63;;;;;;;;;;4994818;28;20427;-76
2022/08/30 00:17:54;;;;;;;6.85;2.92;;;;;;;;;;4996270;28;20034;-76
2022/08/30 00:20:22;;;;;;;7.38;2.75;;;;;;;;;;4996799;28;20034;-76
2022/08/30 00:22:48;;;;;;;9.32;2.53;;;;;;;;;;4998320;28;20038;-76
2022/08/30 00:25:14;;;;;;;5.50;2.60;;;;;;;;;;4995221;28;20058;-76
2022/08/30 00:27:41;;;;;;;6.22;3.08;;;;;;;;;;5000057;28;20475;-76
2022/08/30 00:30:08;;;;;;;4.95;2.80;;;;;;;;;;4996452;28;20019;-76
2022/08/30 00:32:34;;;;;;;6.70;2.80;;;;;;;;;;4999905;28;20030;-76
2022/08/30 00:35:00;;;;;;;5.30;2.40;;;;;;;;;;4995083;28;20516;-76
2022/08/30 00:37:26;;;;;;;6.68;2.50;;;;;;;;;;5002219;28;20034;-76
2022/08/30 00:39:52;;;;;;;6.05;2.30;;;;;;;;;;4998802;28;20038;-76
2022/08/30 00:42:20;;;;;;;8.73;3.03;;;;;;;;;;4998806;28;20033;-76
2022/08/30 00:44:46;;;;;;;7.28;2.60;;;;;;;;;;4996449;28;20096;-76
2022/08/30 00:47:12;;;;;;;4.20;2.30;;;;;;;;;;4999424;28;20113;-76
2022/08/30 00:49:41;;;;;;;6.47;2.47;;;;;;;;;;4998323;28;20026;-76
2022/08/30 00:52:07;;;;;;;3.65;1.98;;;;;;;;;;4997366;28;20057;-76
2022/08/30 00:54:34;;;;;;;8.73;2.83;;;;;;;;;;5002121;28;20036;-76
2022/08/30 00:57:01;;;;;;;5.85;2.60;;;;;;;;;;4998983;28;20084;-76
2022/08/30 00:59:27;;;;;;;4.47;2.47;;;;;;;;;;4994317;28;20026;-76
2022/08/30 01:01:54;;;;;;;4.97;2.60;;;;;;;;;;4996969;28;20052;-76
2022/08/30 01:04:21;;;;;;;4.38;2.50;;;;;;;;;;4991890;28;20085;-76
2022/08/30 01:06:47;;;;;;;5.13;2.60;;;;;;;;;;4996387;28;20121;-76
2022/08/30 01:09:13;;;;;;;4.47;2.17;;;;;;;;;;4990964;28;20057;-76
2022/08/30 01:11:40;;;;;;;6.53;2.65;;;;;;;;;;5000749;28;20364;-76
2022/08/30 01:14:07;;;;;;;5.07;2.90;;;;;;;;;;4994151;28;20558;-76
2022/08/30 01:16:33;;;;;;;5.40;2.95;;;;;;;;;;4996695;28;20906;-76
2022/08/30 01:19:00;;;;;;;4.88;2.63;;;;;;;;;;4993772;28;20049;-76
2022/08/30 01:21:29;;;;;;;4.57;2.65;;;;;;;;;;4997156;28;20105;-76
2022/08/30 01:23:56;;;;;;;4.30;2.35;;;;;;;;;;4995941;28;20499;-76
2022/08/30 01:26:22;;;;;;;4.43;2.50;;;;;;;;;;4993358;28;20058;-76
2022/08/30 01:28:51;;;;;;;4.10;2.53;;;;;;;;;;4996988;28;20033;-76
2022/08/30 01:31:17;;;;;;;7.20;2.88;;;;;;;;;;5000977;28;20035;-76
2022/08/30 01:33:43;;;;;;;6.28;2.30;;;;;;;;;;4993447;28;20026;-76
2022/08/30 01:36:11;;;;;;;5.45;2.63;;;;;;;;;;4996768;28;20034;-76
2022/08/30 01:38:50;;;;;;;7.85;3.22;;;;;;;;;;4993498;28;20538;-76
2022/08/30 01:41:16;;;;;;;5.80;3.17;;;;;;;;;;4992087;28;20052;-76
2022/08/30 01:43:42;;;;;;;4.82;2.45;;;;;;;;;;4996313;28;20475;-76
2022/08/30 01:46:10;;;;;;;5.88;3.28;;;;;;;;;;4999770;28;20033;-76
2022/08/30 01:48:36;;;;;;;6.25;2.53;;;;;;;;;;4997622;28;20039;-76
2022/08/30 01:51:02;;;;;;;4.85;2.90;;;;;;;;;;5001691;28;20356;-76
2022/08/30 01:53:28;;;;;;;7.13;2.83;;;;;;;;;;4997917;28;20136;-76
2022/08/30 01:55:54;;;;;;;7.53;3.67;;;;;;;;;;4998887;28;20079;-76
2022/08/30 01:58:22;;;;;;;6.82;3.40;;;;;;;;;;4995860;28;20037;-76
2022/08/30 02:00:48;;;;;;;7.50;2.88;;;;;;;;;;5001373;28;20034;-76
2022/08/30 02:03:14;;;;;;;7.45;3.38;;;;;;;;;;4994856;28;20415;-76
2022/08/30 02:05:40;;;;;;;5.22;2.72;;;;;;;;;;5000015;28;20038;-76
2022/08/30 02:08:06;;;;;;;6.00;3.10;;;;;;;;;;4996814;28;20030;-76
2022/08/30 02:10:33;;;;;;;6.40;2.95;;;;;;;;;;5000609;28;20052;-76
2022/08/30 02:12:59;;;;;;;5.13;3.10;;;;;;;;;;4998748;28;20034;-76
2022/08/30 02:15:25;;;;;;;4.85;2.33;;;;;;;;;;4999929;28;20030;-76
2022/08/30 02:17:51;;;;;;;5.88;3.08;;;;;;;;;;4995692;28;20451;-75
2022/08/30 02:20:18;;;;;;;4.93;2.55;;;;;;;;;;4991290;28;20463;-76
2022/08/30 02:22:45;;;;;;;4.22;2.08;;;;;;;;;;4997201;28;20038;-76
2022/08/30 02:25:11;;;;;;;5.40;2.80;;;;;;;;;;4994719;28;20034;-76
2022/08/30 02:27:37;;;;;;;5.95;3.15;;;;;;;;;;4995116;28;20037;-76
2022/08/30 02:30:04;;;;;;;5.70;3.13;;;;;;;;;;4993852;28;20383;-76
2022/08/30 02:32:30;;;;;;;7.70;3.17;;;;;;;;;;4997933;28;20022;-76
2022/08/30 02:34:56;;;;;;;5.63;3.10;;;;;;;;;;4996420;28;20490;-76
2022/08/30 02:37:22;;;;;;;6.20;2.90;;;;;;;;;;4988790;28;20034;-76
2022/08/30 02:39:48;;;;;;;5.07;2.90;;;;;;;;;;4996512;28;20157;-76
2022/08/30 02:42:14;;;;;;;6.03;2.40;;;;;;;;;;4996232;28;20069;-76
2022/08/30 02:44:40;;;;;;;5.90;3.03;;;;;;;;;;4996253;28;20476;-76
2022/08/30 02:47:06;;;;;;;7.30;3.42;;;;;;;;;;4994978;28;20034;-76
2022/08/30 02:49:32;;;;;;;5.45;3.45;;;;;;;;;;4996880;28;20076;-76
2022/08/30 02:51:58;;;;;;;5.68;2.83;;;;;;;;;;4996587;28;20034;-76
2022/08/30 02:54:25;;;;;;;9.23;2.92;;;;;;;;;;4998134;28;20534;-77
2022/08/30 02:56:51;;;;;;;5.45;2.88;;;;;;;;;;4999399;28;20038;-77
2022/08/30 02:59:17;;;;;;;5.85;2.45;;;;;;;;;;5000868;28;20062;-76
2022/08/30 03:01:43;;;;;;;5.43;2.95;;;;;;;;;;4996982;28;20226;-76
2022/08/30 03:04:09;;;;;;;4.00;2.47;;;;;;;;;;4989960;28;20033;-75
2022/08/30 03:06:35;;;;;;;7.78;3.03;;;;;;;;;;4994964;28;20036;-77
2022/08/30 03:09:02;;;;;;;4.78;2.70;;;;;;;;;;4996244;28;20029;-77
2022/08/30 03:11:28;;;;;;;9.60;4.03;;;;;;;;;;4993218;28;20018;-76
2022/08/30 03:13:54;;;;;;;5.85;3.05;;;;;;;;;;4999495;28;20030;-76
2022/08/30 03:16:21;;;;;;;6.57;3.20;;;;;;;;;;4996450;28;20059;-77
2022/08/30 03:18:47;;;;;;;4.80;3.15;;;;;;;;;;4996999;28;20033;-76
2022/08/30 03:21:14;;;;;;;6.53;2.50;;;;;;;;;;4999041;28;20022;-76
2022/08/30 03:23:40;;;;;;;13.77;2.97;;;;;;;;;;4994768;28;20041;-77
2022/08/30 03:26:07;;;;;;;8.13;3.35;;;;;;;;;;4998363;28;20045;-76
2022/08/30 03:28:33;;;;;;;6.47;3.08;;;;;;;;;;4996177;28;20033;-76
2022/08/30 03:30:59;;;;;;;6.43;3.05;;;;;;;;;;4995192;28;20034;-77
2022/08/30 03:33:26;;;;;;;5.25;3.13;;;;;;;;;;4995820;28;20052;-77
2022/08/30 03:35:52;;;;;;;11.27;3.60;;;;;;;;;;4994839;28;20033;-76
2022/08/30 03:38:18;;;;;;;9.73;3.88;;;;;;;;;;4996584;28;20038;-76
2022/08/30 03:40:44;;;;;;;7.47;3.28;;;;;;;;;;5001681;28;20511;-76
2022/08/30 03:43:10;;;;;;;8.60;3.28;;;;;;;;;;4997738;28;20475;-76
2022/08/30 03:45:36;;;;;;;8.27;3.67;;;;;;;;;;4998356;28;20035;-76
2022/08/30 03:48:02;;;;;;;6.45;3.20;;;;;;;;;;4998521;28;20034;-76
2022/08/30 03:50:29;;;;;;;9.25;3.83;;;;;;;;;;4996897;28;20037;-76
2022/08/30 03:52:56;;;;;;;5.72;3.40;;;;;;;;;;5002530;28;20030;-76
2022/08/30 03:55:22;;;;;;;8.15;3.40;;;;;;;;;;4999213;28;20592;-76
2022/08/30 03:57:48;;;;;;;6.28;3.55;;;;;;;;;;4999380;28;20515;-76
2022/08/30 04:00:15;;;;;;;7.57;3.50;;;;;;;;;;5001245;28;20042;-76
2022/08/30 04:02:41;;;;;;;8.38;3.28;;;;;;;;;;4994568;28;20030;-76
2022/08/30 04:05:07;;;;;;;6.53;3.50;;;;;;;;;;4999480;28;20037;-76
2022/08/30 04:07:34;;;;;;;8.77;3.42;;;;;;;;;;4998508;28;20420;-76
2022/08/30 04:10:00;;;;;;;8.95;3.88;;;;;;;;;;5001596;28;20036;-76
2022/08/30 04:12:26;;;;;;;6.85;3.13;;;;;;;;;;5005349;28;20034;-76
2022/08/30 04:14:52;;;;;;;7.28;3.78;;;;;;;;;;5001826;28;20033;-76
2022/08/30 04:17:18;;;;;;;7.25;3.55;;;;;;;;;;5001948;28;20033;-76
2022/08/30 04:19:44;;;;;;;6.63;3.55;;;;;;;;;;4996487;28;20079;-76
2022/08/30 04:22:10;;;;;;;13.75;4.15;;;;;;;;;;5006007;28;20435;-76
2022/08/30 04:24:37;;;;;;;5.95;3.22;;;;;;;;;;4999714;28;20037;-76
2022/08/30 04:27:03;;;;;;;8.20;3.42;;;;;;;;;;5005569;28;20434;-76
2022/08/30 04:29:29;;;;;;;9.93;4.65;;;;;;;;;;4999491;28;20320;-76
2022/08/30 04:31:55;;;;;;;9.57;4.43;;;;;;;;;;4996702;28;20093;-76
2022/08/30 04:34:21;;;;;;;7.80;3.88;;;;;;;;;;5006086;28;20040;-75
2022/08/30 04:36:48;;;;;;;9.20;4.03;;;;;;;;;;5004249;28;20459;-75
2022/08/30 04:39:14;;;;;;;6.55;3.35;;;;;;;;;;5005095;28;20033;-76
2022/08/30 04:41:40;;;;;;;5.53;3.40;;;;;;;;;;5008124;28;20033;-76
2022/08/30 04:44:06;;;;;;;6.15;3.35;;;;;;;;;;5000829;28;20058;-76
2022/08/30 04:46:34;;;;;;;6.18;3.58;;;;;;;;;;5003526;28;20026;-74
2022/08/30 04:49:00;;;;;;;9.80;3.50;;;;;;;;;;5000518;28;20057;-75
2022/08/30 04:51:26;;;;;;;8.65;4.13;;;;;;;;;;5001499;28;20069;-75
2022/08/30 04:53:52;;;;;;;8.95;3.88;;;;;;;;;;4999577;28;20113;-75
2022/08/30 04:56:21;;;;;;;8.68;3.55;;;;;;;;;;4998181;28;20030;-75
2022/08/30 04:58:47;;;;;;;6.38;3.22;;;;;;;;;;5000057;28;20097;-75
2022/08/30 05:01:18;;;;;;;10.13;3.90;;;;;;;;;;5000288;28;20029;-75
2022/08/30 05:03:44;;;;;;;10.60;3.67;;;;;;;;;;5002111;28;20030;-75
2022/08/30 05:06:13;;;;;;;5.90;3.47;;;;;;;;;;5002019;28;20494;-75
2022/08/30 05:08:40;;;;;;;11.73;4.03;;;;;;;;;;4991671;28;20030;-75
2022/08/30 05:11:08;;;;;;;10.82;3.65;;;;;;;;;;4994898;28;20500;-75
2022/08/30 05:13:34;;;;;;;12.43;4.45;;;;;;;;;;4998519;28;20387;-75
2022/08/30 05:16:01;;;;;;;13.90;4.07;;;;;;;;;;5003724;28;20048;-75
2022/08/30 05:18:27;;;;;;;10.85;4.63;;;;;;;;;;4998759;28;20578;-75
2022/08/30 05:21:07;;;;;;;7.45;3.67;;;;;;;;;;4999537;28;20117;-75
2022/08/30 05:23:34;;;;;;;9.65;4.13;;;;;;;;;;4997508;28;20038;-75
2022/08/30 05:26:04;;;;;;;9.20;4.47;;;;;;;;;;4999892;28;20513;-75
2022/08/30 05:28:29;;;;;;;8.02;4.20;;;;;;;;;;4996834;28;20030;-75
2022/08/30 05:30:55;;;;;;;8.88;4.47;;;;;;;;;;4996016;28;20041;-75
2022/08/30 05:33:21;;;;;;;7.90;4.63;;;;;;;;;;4998555;28;20038;-75
2022/08/30 05:35:47;;;;;;;7.60;4.05;;;;;;;;;;4996518;28;20121;-75
2022/08/30 05:38:13;;;;;;;8.20;4.10;;;;;;;;;;4998689;28;20034;-76
2022/08/30 05:40:40;;;;;;;7.22;3.90;;;;;;;;;;4998797;28;20493;-76
2022/08/30 05:43:06;;;;;;;10.18;4.10;;;;;;;;;;5003215;28;20037;-75
2022/08/30 05:45:32;;;;;;;9.77;4.07;;;;;;;;;;4994930;28;20038;-75
2022/08/30 05:47:59;;;;;;;11.50;4.05;;;;;;;;;;5001442;28;20072;-75
2022/08/30 05:50:25;;;;;;;6.93;3.90;;;;;;;;;;5001805;28;20021;-75
2022/08/30 05:52:51;;;;;;;7.53;3.60;;;;;;;;;;5002671;28;20525;-75
2022/08/30 05:55:17;;;;;;;8.73;4.22;;;;;;;;;;4995741;28;20141;-76
2022/08/30 05:57:44;;;;;;;7.32;3.95;;;;;;;;;;5003384;28;20038;-75
2022/08/30 06:00:12;;;;;;;11.43;3.92;;;;;;;;;;5002365;28;20038;-76
2022/08/30 06:02:38;;;;;;;17.00;4.80;;;;;;;;;;5000214;28;20065;-76
2022/08/30 06:05:05;;;;;;;15.90;5.07;;;;;;;;;;4993320;28;20038;-75
2022/08/30 06:07:31;;;;;;;11.02;5.20;;;;;;;;;;4994715;28;20068;-75
2022/08/30 06:09:57;;;;;;;12.73;4.57;;;;;;;;;;4993376;28;20025;-75
2022/08/30 06:12:23;;;;;;;9.30;4.25;;;;;;;;;;4997174;28;20033;-76
2022/08/30 06:14:49;;;;;;;9.57;4.07;;;;;;;;;;4995072;28;20085;-75
2022/08/30 06:17:15;;;;;;;6.10;3.47;;;;;;;;;;4991959;28;20426;-76
2022/08/30 06:19:41;;;;;;;13.55;4.78;;;;;;;;;;4988310;28;20031;-76
2022/08/30 06:22:07;;;;;;;11.10;4.68;;;;;;;;;;4997762;28;20037;-75
2022/08/30 06:24:35;;;;;;;10.93;3.95;;;;;;;;;;4995470;28;20153;-76
2022/08/30 06:27:01;;;;;;;7.03;4.18;;;;;;;;;;4993320;28;20081;-75
2022/08/30 06:29:27;;;;;;;9.93;4.20;;;;;;;;;;4995134;28;20129;-75
2022/08/30 06:31:53;;;;;;;14.88;4.55;;;;;;;;;;4996276;28;20026;-75
2022/08/30 06:34:20;;;;;;;13.93;4.28;;;;;;;;;;4994891;28;20493;-76
2022/08/30 06:36:46;;;;;;;11.20;5.25;;;;;;;;;;4990431;28;20113;-75
2022/08/30 06:39:12;;;;;;;10.95;4.88;;;;;;;;;;4992670;28;20036;-76
2022/08/30 06:41:39;;;;;;;8.25;3.90;;;;;;;;;;4994713;28;20078;-76
2022/08/30 06:44:05;;;;;;;10.52;4.35;;;;;;;;;;4997387;28;20030;-75
2022/08/30 06:46:33;;;;;;;9.40;3.90;;;;;;;;;;4993308;28;20394;-75
2022/08/30 06:49:00;;;;;;;12.13;4.38;;;;;;;;;;4993934;28;20030;-75
2022/08/30 06:51:30;;;;;;;10.13;3.60;;;;;;;;;;4995063;28;20053;-76
2022/08/30 06:53:56;;;;;;;9.18;4.50;;;;;;;;;;4991490;28;20030;-75
2022/08/30 06:56:23;;;;;;;11.27;3.95;;;;;;;;;;4997723;28;20026;-76
2022/08/30 06:58:49;;;;;;;16.45;4.45;;;;;;;;;;4993489;28;20394;-76
2022/08/30 07:01:16;;;;;;;6.18;3.80;;;;;;;;;;4996069;28;20036;-76
2022/08/30 07:03:42;;;;;;;18.88;5.13;;;;;;;;;;4994145;28;20038;-76
2022/08/30 07:06:08;;;;;;;16.85;5.43;;;;;;;;;;4996077;28;20577;-76
2022/08/30 07:08:35;;;;;;;14.57;5.90;;;;;;;;;;4992744;28;20037;-76
2022/08/30 07:11:02;;;;;;;11.93;5.13;;;;;;;;;;4997930;28;20403;-76
2022/08/30 07:13:29;;;;;;;12.18;4.65;;;;;;;;;;4992739;28;20041;-76
2022/08/30 07:15:55;;;;;;;13.43;4.70;;;;;;;;;;4997233;28;20091;-76
2022/08/30 07:21:10;;;;;;;13.77;4.90;;;;;;;;;;5003084;28;20068;-76
2022/08/30 07:23:37;;;;;;;13.35;4.68;;;;;;;;;;4999239;28;20431;-76
2022/08/30 07:26:07;;;;;;;13.77;4.28;;;;;;;;;;5001498;28;20049;-76
2022/08/30 07:28:34;;;;;;;13.45;4.65;;;;;;;;;;4996353;28;20484;-76
2022/08/30 07:31:00;;;;;;;13.63;4.72;;;;;;;;;;4999904;28;20069;-76
2022/08/30 07:33:26;;;;;;;10.57;4.38;;;;;;;;;;5003795;28;20026;-76
2022/08/30 07:35:52;;;;;;;12.63;4.55;;;;;;;;;;5002352;28;20488;-76
2022/08/30 07:38:18;;;;;;;10.13;4.05;;;;;;;;;;4999570;28;20447;-77
2022/08/30 07:40:45;;;;;;;10.82;3.85;;;;;;;;;;5000122;28;20041;-77
2022/08/30 07:43:11;;;;;;;6.70;3.63;;;;;;;;;;4994490;28;20125;-77
2022/08/30 07:45:38;;;;;;;10.32;3.15;;;;;;;;;;4987016;28;20715;-76
2022/08/30 07:48:04;;;;;;;13.45;4.07;;;;;;;;;;4996971;28;20040;-76
2022/08/30 07:50:30;;;;;;;8.13;3.80;;;;;;;;;;5000510;28;20032;-76
2022/08/30 07:52:56;;;;;;;7.28;3.40;;;;;;;;;;4997365;28;20066;-77
2022/08/30 07:55:22;;;;;;;8.77;3.83;;;;;;;;;;4995828;28;20029;-76
2022/08/30 07:57:48;;;;;;;9.50;3.33;;;;;;;;;;5004339;28;20048;-77
2022/08/30 08:00:15;;;;;;;8.27;3.00;;;;;;;;;;4994450;28;20069;-77
2022/08/30 08:02:41;;;;;;;13.20;3.75;;;;;;;;;;4997347;28;20037;-77
2022/08/30 08:05:07;;;;;;;11.00;3.72;;;;;;;;;;5001853;28;20084;-76
2022/08/30 08:07:34;;;;;;;7.10;3.60;;;;;;;;;;4999795;28;20049;-76
2022/08/30 08:10:00;;;;;;;13.50;4.80;;;;;;;;;;5000052;28;20148;-76
2022/08/30 08:12:26;;;;;;;7.80;3.17;;;;;;;;;;5001100;28;20030;-76
2022/08/30 08:14:53;;;;;;;9.73;3.55;;;;;;;;;;5002487;28;20037;-76
2022/08/30 08:17:19;;;;;;;8.90;3.53;;;;;;;;;;4995683;28;20483;-76
2022/08/30 08:19:45;;;;;;;9.98;3.25;;;;;;;;;;5002807;28;20124;-77
2022/08/30 08:22:11;;;;;;;7.25;2.95;;;;;;;;;;5001315;28;20034;-76
2022/08/30 08:24:37;;;;;;;6.63;3.55;;;;;;;;;;4993391;28;20034;-76
2022/08/30 08:27:03;;;;;;;12.80;3.53;;;;;;;;;;4994941;28;20088;-76
2022/08/30 08:29:29;;;;;;;10.88;3.47;;;;;;;;;;4996977;28;20018;-76
2022/08/30 08:31:56;;;;;;;11.45;3.60;;;;;;;;;;5000462;28;20064;-77
2022/08/30 08:34:22;;;;;;;13.40;3.30;;;;;;;;;;5005592;28;20033;-76
2022/08/30 08:36:49;;;;;;;9.02;3.47;;;;;;;;;;5004545;28;20053;-76
2022/08/30 08:39:15;;;;;;;10.95;3.63;;;;;;;;;;5007355;28;20022;-76
2022/08/30 08:42:17;;;;;;;9.50;4.22;;;;;;;;;;5005716;28;20042;-77
2022/08/30 08:44:49;;;;;;;9.55;3.78;;;;;;;;;;4928977;29;20102;-76
2022/08/30 08:47:27;;;;;;;7.22;3.40;;;;;;;;;;4989451;28;20037;-76
2022/08/30 08:49:55;;;;;;;8.07;3.65;;;;;;;;;;5001073;28;20622;-76
2022/08/30 08:55:14;;;;;;;9.55;3.78;;;;;;;;;;5002244;28;20045;-77
2022/08/30 08:57:41;;;;;;;9.68;3.85;;;;;;;;;;4997079;28;20045;-76
2022/08/30 09:00:09;;;;;;;6.38;3.10;;;;;;;;;;4995912;28;20031;-76
2022/08/30 09:02:45;;;;;;;9.43;3.40;;;;;;;;;;4994701;28;20092;-76
2022/08/30 09:05:14;;;;;;;6.78;3.20;;;;;;;;;;4999208;28;20392;-76
2022/08/30 09:07:42;;;;;;;6.00;3.42;;;;;;;;;;5000466;28;20509;-76
2022/08/30 09:10:08;;;;;;;10.73;3.45;;;;;;;;;;4997167;28;20135;-77
2022/08/30 09:12:34;;;;;;;8.43;2.85;;;;;;;;;;4996411;28;20034;-76
2022/08/30 09:15:15;;;;;;;7.88;3.00;;;;;;;;;;5000688;28;20049;-76
2022/08/30 09:17:53;;;;;;;7.83;3.27;;;;;;;;;;4999803;28;20038;-76
2022/08/30 09:20:30;;;;;;;9.68;3.30;;;;;;;;;;4999973;28;20109;-76
2022/08/30 09:22:56;;;;;;;10.43;3.92;;;;;;;;;;4997738;28;20073;-76
2022/08/30 09:25:27;;;;;;;6.22;3.17;;;;;;;;;;4997816;28;20046;-76
2022/08/30 09:27:54;;;;;;;7.15;3.00;;;;;;;;;;4992661;28;20099;-76
2022/08/30 09:30:20;;;;;;;11.30;3.28;;;;;;;;;;4993734;28;20030;-77
2022/08/30 09:32:51;;;;;;;7.88;3.33;;;;;;;;;;4996808;28;20542;-77
2022/08/30 09:35:33;;;;;;;7.23;2.93;;;;;;;;;;5000745;28;20034;-77
2022/08/30 09:38:10;;;;;;;7.82;3.00;;;;;;;;;;4998503;28;20472;-77
2022/08/30 09:40:38;;;;;;;8.73;3.17;;;;;;;;;;5000023;28;20037;-76
2022/08/30 09:43:09;;;;;;;11.20;3.00;;;;;;;;;;4998869;28;20049;-77
2022/08/30 09:45:41;;;;;;;5.93;3.17;;;;;;;;;;4997949;28;20031;-76
2022/08/30 09:48:39;;;;;;;6.45;3.08;;;;;;;;;;5000431;28;20464;-76
2022/08/30 09:51:05;;;;;;;11.13;3.55;;;;;;;;;;4974932;28;20041;-77
2022/08/30 09:53:34;;;;;;;9.23;3.60;;;;;;;;;;5003227;28;20053;-77
2022/08/30 09:56:00;;;;;;;8.82;3.30;;;;;;;;;;5001790;28;20503;-77
2022/08/30 09:58:32;;;;;;;8.50;3.55;;;;;;;;;;4995348;28;20042;-77
2022/08/30 10:01:04;;;;;;;9.55;3.63;;;;;;;;;;4999794;28;20034;-77
2022/08/30 10:03:36;;;;;;;7.88;4.07;;;;;;;;;;5003396;28;20898;-77
2022/08/30 10:06:05;;;;;;;9.23;3.20;;;;;;;;;;5001681;28;20371;-77
2022/08/30 10:08:37;;;;;;;5.05;2.78;;;;;;;;;;5005977;28;20364;-77
2022/08/30 10:11:19;;;;;;;6.43;2.90;;;;;;;;;;4994133;28;20081;-77
2022/08/30 10:13:51;;;;;;;8.43;3.80;;;;;;;;;;5000024;28;20030;-77
2022/08/30 10:16:37;;;;;;;5.65;3.17;;;;;;;;;;4999812;28;20050;-77
2022/08/30 10:19:12;;;;;;;12.82;3.55;;;;;;;;;;5000344;28;20033;-77
2022/08/30 10:21:41;;;;;;;5.93;3.50;;;;;;;;;;4995804;28;20140;-76
2022/08/30 10:24:07;;;;;;;8.93;3.67;;;;;;;;;;4997979;28;20030;-77
2022/08/30 10:26:38;;;;;;;7.43;3.17;;;;;;;;;;5001973;28;20045;-77
2022/08/30 10:29:04;;;;;;;8.13;3.25;;;;;;;;;;4994317;28;20038;-77
2022/08/30 10:31:38;;;;;;;5.85;3.20;;;;;;;;;;4997140;28;20053;-77
2022/08/30 10:34:16;;;;;;;9.50;2.90;;;;;;;;;;4997552;28;20038;-77
2022/08/30 10:36:44;;;;;;;10.82;3.67;;;;;;;;;;5005602;28;20038;-77
2022/08/30 10:39:15;;;;;;;6.80;3.42;;;;;;;;;;4997851;28;20039;-77
2022/08/30 10:41:41;;;;;;;;;;;;;;;;;;4999736;28;20117;-77
2022/08/30 10:44:12;;;;;;;6.22;2.67;;;;;;;;;;5002775;28;20601;-77
2022/08/30 10:46:41;;;;;;;7.00;3.45;;;;;;;;;;4998008;28;20037;-77
2022/08/30 10:49:18;;;;;;;12.50;3.30;;;;;;;;;;5000575;28;20022;-77
2022/08/30 10:51:51;;;;;;;7.18;2.95;;;;;;;;;;5000663;28;20466;-77
2022/08/30 10:54:23;;;;;;;6.55;3.58;;;;;;;;;;5004443;28;20427;-77
2022/08/30 10:56:50;;;;;;;6.45;3.00;;;;;;;;;;4995496;28;20042;-77
2022/08/30 10:59:17;;;;;;;7.70;3.08;;;;;;;;;;4994126;28;20105;-77
2022/08/30 11:01:43;;;;;;;5.45;3.35;;;;;;;;;;4990316;28;20034;-77
2022/08/30 11:04:18;;;;;;;7.00;3.10;;;;;;;;;;5003720;28;20084;-76
2022/08/30 11:06:47;;;;;;;7.18;3.70;;;;;;;;;;4997972;28;20034;-77
2022/08/30 11:09:22;;;;;;;10.30;3.42;;;;;;;;;;5002013;28;20216;-76
2022/08/30 11:11:58;;;;;;;8.00;3.33;;;;;;;;;;4992451;28;20030;-77
2022/08/30 11:14:24;;;;;;;9.32;3.00;;;;;;;;;;4994801;28;20208;-77
2022/08/30 11:16:51;;;;;;;9.27;3.40;;;;;;;;;;4996874;28;20053;-77
2022/08/30 11:19:20;;;;;;;5.28;3.05;;;;;;;;;;4991775;28;20993;-77
2022/08/30 11:21:47;;;;;;;8.95;3.30;;;;;;;;;;4996005;28;20130;-77
2022/08/30 11:24:15;;;;;;;6.63;3.22;;;;;;;;;;5000617;28;20025;-78
2022/08/30 11:26:47;;;;;;;9.30;3.63;;;;;;;;;;5002389;28;20068;-77
2022/08/30 11:29:25;;;;;;;6.05;3.78;;;;;;;;;;4997164;28;20026;-78
2022/08/30 11:31:52;;;;;;;6.05;3.28;;;;;;;;;;4993919;28;20038;-77
2022/08/30 11:34:37;;;;;;;4.38;2.83;;;;;;;;;;5004693;28;20412;-78
2022/08/30 11:37:03;;;;;;;6.88;3.28;;;;;;;;;;5002965;28;20537;-77
2022/08/30 11:39:41;;;;;;;7.93;3.75;;;;;;;;;;4995251;28;20250;-77
2022/08/30 11:42:23;;;;;;;11.00;3.67;;;;;;;;;;4996991;28;20066;-77
2022/08/30 11:44:49;;;;;;;8.52;3.78;;;;;;;;;;4996557;28;20459;-77
2022/08/30 11:47:45;;;;;;;7.38;3.38;;;;;;;;;;4995916;28;20033;-77
2022/08/30 11:50:17;;;;;;;6.88;3.88;;;;;;;;;;4910522;28;20084;-77
2022/08/30 11:52:51;;;;;;;7.55;3.90;;;;;;;;;;4996909;28;20125;-78
2022/08/30 11:55:35;;;;;;;6.72;3.05;;;;;;;;;;5000732;28;20037;-78
2022/08/30 11:58:25;;;;;;;6.00;3.10;;;;;;;;;;4998402;28;20031;-77
2022/08/30 12:01:11;;;;;;;4.00;3.10;;;;;;;;;;4996448;28;20033;-77
2022/08/30 12:03:37;;;;;;;7.80;3.20;;;;;;;;;;4999767;28;20375;-78
2022/08/30 12:06:07;;;;;;;7.18;3.60;;;;;;;;;;5003633;28;20073;-78
2022/08/30 12:08:33;;;;;;;7.63;3.35;;;;;;;;;;5002209;28;20538;-77
2022/08/30 12:11:07;;;;;;;6.20;3.40;;;;;;;;;;4999465;28;20056;-78
2022/08/30 12:13:34;;;;;;;5.35;3.20;;;;;;;;;;5002957;28;20053;-77
2022/08/30 12:16:07;;;;;;;5.53;3.10;;;;;;;;;;5005456;28;20037;-78
2022/08/30 12:18:59;;;;;;;7.10;3.22;;;;;;;;;;4993571;28;20438;-77
2022/08/30 12:21:30;;;;;;;6.68;3.13;;;;;;;;;;4988293;28;20057;-77
2022/08/30 12:24:15;;;;;;;8.82;3.60;;;;;;;;;;4999734;28;20029;-78
2022/08/30 12:26:44;;;;;;;4.07;2.83;;;;;;;;;;5001136;28;20160;-78
2022/08/30 12:29:10;;;;;;;6.35;3.00;;;;;;;;;;4999362;28;20157;-78
2022/08/30 12:31:52;;;;;;;9.30;3.08;;;;;;;;;;4996091;28;20034;-78
2022/08/30 12:34:18;;;;;;;;;;;;;;;;;;4996004;28;20034;-77
2022/08/30 12:36:57;;;;;;;9.43;3.88;;;;;;;;;;4977514;28;20484;-77
2022/08/30 12:39:23;;;;;;;4.85;2.92;;;;;;;;;;4998089;28;20018;-78
2022/08/30 12:41:49;;;;;;;5.40;3.00;;;;;;;;;;4999535;28;20042;-77
2022/08/30 12:44:18;;;;;;;9.02;3.70;;;;;;;;;;5000812;28;20336;-77
2022/08/30 12:46:47;;;;;;;6.50;3.65;;;;;;;;;;5000775;28;20112;-78
2022/08/30 12:49:15;;;;;;;7.40;3.28;;;;;;;;;;4996580;28;20025;-78
2022/08/30 12:51:42;;;;;;;6.80;3.30;;;;;;;;;;4998575;28;20078;-78
2022/08/30 12:54:13;;;;;;;6.35;3.63;;;;;;;;;;4996426;28;20392;-78
2022/08/30 12:56:46;;;;;;;5.00;3.15;;;;;;;;;;4996862;28;20665;-77
2022/08/30 12:59:32;;;;;;;4.70;3.03;;;;;;;;;;4996264;28;20045;-76
2022/08/30 13:02:15;;;;;;;6.15;3.53;;;;;;;;;;4996531;28;20030;-76
2022/08/30 13:04:42;;;;;;;7.15;3.88;;;;;;;;;;4995240;28;20044;-76
2022/08/30 13:07:08;;;;;;;6.25;3.30;;;;;;;;;;5001027;28;20041;-76
2022/08/30 13:09:42;;;;;;;5.38;3.10;;;;;;;;;;4997192;28;20521;-76
2022/08/30 13:12:21;;;;;;;7.40;2.28;;;;;;;;;;4998204;28;20038;-76
2022/08/30 13:14:48;;;;;;;6.40;3.00;;;;;;;;;;4999057;28;20041;-77
2022/08/30 13:17:22;;;;;;;7.82;3.00;;;;;;;;;;4995762;28;20053;-77
2022/08/30 13:19:56;;;;;;;6.97;2.92;;;;;;;;;;4998862;28;20479;-76
2022/08/30 13:22:30;;;;;;;6.38;2.85;;;;;;;;;;4998579;28;20479;-76
2022/08/30 13:24:57;;;;;;;13.82;3.50;;;;;;;;;;5001889;28;20517;-76
2022/08/30 13:27:23;;;;;;;8.88;3.05;;;;;;;;;;4996991;28;20140;-76
2022/08/30 13:29:50;;;;;;;6.20;2.47;;;;;;;;;;4994952;28;20034;-76
2022/08/30 13:32:16;;;;;;;6.70;3.22;;;;;;;;;;4997784;28;20029;-76
2022/08/30 13:34:42;;;;;;;6.35;2.97;;;;;;;;;;5000462;28;20040;-76
2022/08/30 13:37:10;;;;;;;7.20;3.05;;;;;;;;;;4998662;28;20041;-76
2022/08/30 13:39:36;;;;;;;6.43;2.95;;;;;;;;;;4998963;28;20056;-76
2022/08/30 13:42:02;;;;;;;6.55;3.17;;;;;;;;;;4996186;28;20475;-76
2022/08/30 13:44:28;;;;;;;7.35;3.28;;;;;;;;;;4997854;28;20041;-76
2022/08/30 13:46:56;;;;;;;6.30;2.38;;;;;;;;;;5001528;28;20041;-76
2022/08/30 13:49:24;;;;;;;6.47;2.85;;;;;;;;;;4995381;28;20048;-76
2022/08/30 13:51:52;;;;;;;8.18;3.05;;;;;;;;;;4992939;28;20049;-76
2022/08/30 13:54:20;;;;;;;6.28;3.20;;;;;;;;;;4996621;28;20105;-76
2022/08/30 13:56:47;;;;;;;4.60;2.92;;;;;;;;;;5002137;28;20040;-76
2022/08/30 13:59:13;;;;;;;5.85;3.10;;;;;;;;;;5002543;28;20128;-76
2022/08/30 14:01:39;;;;;;;5.40;3.03;;;;;;;;;;4999344;28;20038;-76
2022/08/30 14:04:05;;;;;;;5.90;2.80;;;;;;;;;;4994361;28;20104;-76
2022/08/30 14:06:31;;;;;;;6.78;3.15;;;;;;;;;;5000582;28;20606;-76
2022/08/30 14:08:57;;;;;;;7.40;3.00;;;;;;;;;;5001347;28;20653;-76
2022/08/30 14:11:23;;;;;;;6.35;3.13;;;;;;;;;;4996251;28;20045;-76
2022/08/30 14:13:50;;;;;;;5.40;3.10;;;;;;;;;;5000386;28;20126;-76
2022/08/30 14:16:16;;;;;;;7.35;3.00;;;;;;;;;;5000900;28;20027;-76
2022/08/30 14:18:42;;;;;;;6.93;2.88;;;;;;;;;;4996188;28;20033;-76
2022/08/30 14:21:08;;;;;;;7.93;2.72;;;;;;;;;;4996717;28;20025;-76
2022/08/30 14:23:34;;;;;;;5.57;3.22;;;;;;;;;;5001146;28;20045;-76
2022/08/30 14:26:01;;;;;;;6.90;3.45;;;;;;;;;;4990944;28;20046;-76
2022/08/30 14:28:29;;;;;;;7.90;3.15;;;;;;;;;;4982998;28;20064;-76
2022/08/30 14:30:55;;;;;;;5.88;2.90;;;;;;;;;;4981651;28;20065;-76
2022/08/30 14:33:22;;;;;;;6.43;3.00;;;;;;;;;;4975547;28;20045;-76
2022/08/30 14:35:48;;;;;;;8.15;3.30;;;;;;;;;;4986516;28;20032;-75
2022/08/30 14:38:14;;;;;;;8.90;3.28;;;;;;;;;;4978839;28;20042;-76
2022/08/30 14:40:40;;;;;;;5.30;3.10;;;;;;;;;;4972845;28;20436;-76
2022/08/30 14:43:06;;;;;;;8.40;3.45;;;;;;;;;;4979316;28;20047;-76
2022/08/30 14:45:32;;;;;;;4.95;2.80;;;;;;;;;;4980895;28;20042;-76
2022/08/30 14:48:01;;;;;;;6.72;2.75;;;;;;;;;;4974812;28;20039;-77
2022/08/30 14:50:27;;;;;;;6.72;3.05;;;;;;;;;;4979793;28;20046;-76
2022/08/30 14:52:53;;;;;;;6.95;3.53;;;;;;;;;;4979349;28;20468;-76
2022/08/30 14:55:19;;;;;;;6.30;2.92;;;;;;;;;;4982734;28;20037;-76